sensor_id;sensor_type;location;lat;lon;timestamp;P1;durP1;ratioP1;P2;durP2;ratioP2
24084;SDS011;12268;52.110;5.548;2022-09-13T00:00:51;17.25;;;12.50;;
24084;SDS011;12268;52.110;5.548;2022-09-13T00:03:18;20.65;;;13.13;;
24084;SDS011;12268;52.110;5.548;2022-09-13T00:05:44;20.92;;;14.60;;
24084;SDS011;12268;52.110;5.548;2022-09-13T00:08:10;21.35;;;14.32;;
24084;SDS011;12268;52.110;5.548;2022-09-13T00:10:37;18.20;;;13.52;;
24084;SDS011;12268;52.110;5.548;2022-09-13T00:13:04;17.40;;;14.13;;
24084;SDS011;12268;52.110;5.548;2022-09-13T00:15:30;22.25;;;13.52;;
24084;SDS011;12268;52.110;5.548;2022-09-13T00:17:56;23.05;;;13.13;;
24084;SDS011;12268;52.110;5.548;2022-09-13T00:20:22;19.77;;;12.98;;
24084;SDS011;12268;52.110;5.548;2022-09-13T00:22:47;17.58;;;11.73;;
24084;SDS011;12268;52.110;5.548;2022-09-13T00:25:13;19.25;;;12.20;;
24084;SDS011;12268;52.110;5.548;2022-09-13T00:27:38;16.98;;;12.60;;
24084;SDS011;12268;52.110;5.548;2022-09-13T00:30:05;17.02;;;12.85;;
24084;SDS011;12268;52.110;5.548;2022-09-13T00:32:32;17.27;;;12.95;;
24084;SDS011;12268;52.110;5.548;2022-09-13T00:34:58;16.85;;;12.73;;
24084;SDS011;12268;52.110;5.548;2022-09-13T00:37:24;17.30;;;12.38;;
24084;SDS011;12268;52.110;5.548;2022-09-13T00:39:50;16.67;;;12.10;;
24084;SDS011;12268;52.110;5.548;2022-09-13T00:42:16;17.77;;;12.55;;
24084;SDS011;12268;52.110;5.548;2022-09-13T00:47:39;17.77;;;12.50;;
24084;SDS011;12268;52.110;5.548;2022-09-13T00:50:20;18.00;;;12.55;;
24084;SDS011;12268;52.110;5.548;2022-09-13T00:52:58;19.65;;;12.48;;
24084;SDS011;12268;52.110;5.548;2022-09-13T00:55:29;19.75;;;12.80;;
24084;SDS011;12268;52.110;5.548;2022-09-13T00:58:05;16.38;;;12.07;;
24084;SDS011;12268;52.110;5.548;2022-09-13T01:00:36;16.80;;;12.13;;
24084;SDS011;12268;52.110;5.548;2022-09-13T01:03:04;16.92;;;11.55;;
24084;SDS011;12268;52.110;5.548;2022-09-13T01:05:34;17.77;;;13.07;;
24084;SDS011;12268;52.110;5.548;2022-09-13T01:08:02;20.30;;;12.75;;
24084;SDS011;12268;52.110;5.548;2022-09-13T01:10:34;16.75;;;12.82;;
24084;SDS011;12268;52.110;5.548;2022-09-13T01:13:25;17.05;;;12.70;;
24084;SDS011;12268;52.110;5.548;2022-09-13T01:15:53;17.98;;;12.52;;
24084;SDS011;12268;52.110;5.548;2022-09-13T01:18:18;18.48;;;12.95;;
24084;SDS011;12268;52.110;5.548;2022-09-13T01:21:03;17.48;;;13.35;;
24084;SDS011;12268;52.110;5.548;2022-09-13T01:29:45;20.58;;;13.77;;
24084;SDS011;12268;52.110;5.548;2022-09-13T01:32:40;22.10;;;13.82;;
24084;SDS011;12268;52.110;5.548;2022-09-13T01:37:53;22.30;;;14.27;;
24084;SDS011;12268;52.110;5.548;2022-09-13T01:48:36;21.27;;;13.93;;
24084;SDS011;12268;52.110;5.548;2022-09-13T01:51:33;18.88;;;13.02;;
24084;SDS011;12268;52.110;5.548;2022-09-13T01:54:15;24.17;;;14.27;;
24084;SDS011;12268;52.110;5.548;2022-09-13T01:56:57;19.65;;;14.30;;
24084;SDS011;12268;52.110;5.548;2022-09-13T01:59:37;20.02;;;14.73;;
24084;SDS011;12268;52.110;5.548;2022-09-13T02:02:17;22.38;;;15.27;;
24084;SDS011;12268;52.110;5.548;2022-09-13T02:04:57;24.08;;;15.55;;
24084;SDS011;12268;52.110;5.548;2022-09-13T02:07:30;20.63;;;15.10;;
24084;SDS011;12268;52.110;5.548;2022-09-13T02:13:05;24.33;;;16.00;;
24084;SDS011;12268;52.110;5.548;2022-09-13T02:15:38;20.00;;;14.07;;
24084;SDS011;12268;52.110;5.548;2022-09-13T02:18:27;25.35;;;15.73;;
24084;SDS011;12268;52.110;5.548;2022-09-13T02:21:06;22.50;;;15.50;;
24084;SDS011;12268;52.110;5.548;2022-09-13T02:23:53;19.67;;;14.98;;
24084;SDS011;12268;52.110;5.548;2022-09-13T02:26:25;23.83;;;15.35;;
24084;SDS011;12268;52.110;5.548;2022-09-13T02:28:55;21.83;;;14.98;;
24084;SDS011;12268;52.110;5.548;2022-09-13T02:31:38;21.20;;;14.35;;
24084;SDS011;12268;52.110;5.548;2022-09-13T02:34:11;23.00;;;14.82;;
24084;SDS011;12268;52.110;5.548;2022-09-13T02:36:46;22.60;;;16.08;;
24084;SDS011;12268;52.110;5.548;2022-09-13T02:39:14;24.58;;;16.63;;
24084;SDS011;12268;52.110;5.548;2022-09-13T02:44:36;21.27;;;15.30;;
24084;SDS011;12268;52.110;5.548;2022-09-13T02:47:22;23.10;;;15.87;;
24084;SDS011;12268;52.110;5.548;2022-09-13T02:50:10;19.15;;;15.10;;
24084;SDS011;12268;52.110;5.548;2022-09-13T03:01:09;22.42;;;15.27;;
24084;SDS011;12268;52.110;5.548;2022-09-13T03:03:35;21.13;;;15.10;;
24084;SDS011;12268;52.110;5.548;2022-09-13T03:06:01;23.08;;;15.27;;
24084;SDS011;12268;52.110;5.548;2022-09-13T03:08:27;22.00;;;15.20;;
24084;SDS011;12268;52.110;5.548;2022-09-13T03:13:32;22.17;;;15.05;;
24084;SDS011;12268;52.110;5.548;2022-09-13T03:16:13;22.38;;;15.15;;
24084;SDS011;12268;52.110;5.548;2022-09-13T03:19:01;22.17;;;15.73;;
24084;SDS011;12268;52.110;5.548;2022-09-13T03:21:46;22.27;;;15.75;;
24084;SDS011;12268;52.110;5.548;2022-09-13T03:24:37;23.20;;;16.15;;
24084;SDS011;12268;52.110;5.548;2022-09-13T03:40:51;22.85;;;15.52;;
24084;SDS011;12268;52.110;5.548;2022-09-13T03:45:55;26.05;;;16.20;;
24084;SDS011;12268;52.110;5.548;2022-09-13T03:48:22;20.90;;;14.90;;
24084;SDS011;12268;52.110;5.548;2022-09-13T03:50:49;26.23;;;16.20;;
24084;SDS011;12268;52.110;5.548;2022-09-13T03:53:17;23.92;;;14.75;;
24084;SDS011;12268;52.110;5.548;2022-09-13T03:55:46;20.23;;;14.82;;
24084;SDS011;12268;52.110;5.548;2022-09-13T03:58:13;21.30;;;14.85;;
24084;SDS011;12268;52.110;5.548;2022-09-13T04:00:41;24.30;;;14.80;;
24084;SDS011;12268;52.110;5.548;2022-09-13T04:03:06;21.58;;;15.80;;
24084;SDS011;12268;52.110;5.548;2022-09-13T04:05:33;24.45;;;16.25;;
24084;SDS011;12268;52.110;5.548;2022-09-13T04:07:59;26.63;;;18.13;;
24084;SDS011;12268;52.110;5.548;2022-09-13T04:10:25;24.20;;;16.35;;
24084;SDS011;12268;52.110;5.548;2022-09-13T04:12:52;26.85;;;16.58;;
24084;SDS011;12268;52.110;5.548;2022-09-13T04:15:18;25.48;;;16.15;;
24084;SDS011;12268;52.110;5.548;2022-09-13T04:17:44;25.48;;;16.65;;
24084;SDS011;12268;52.110;5.548;2022-09-13T04:20:10;20.65;;;14.70;;
24084;SDS011;12268;52.110;5.548;2022-09-13T04:22:35;23.90;;;15.60;;
24084;SDS011;12268;52.110;5.548;2022-09-13T04:25:01;21.35;;;15.57;;
24084;SDS011;12268;52.110;5.548;2022-09-13T04:27:26;23.10;;;15.60;;
24084;SDS011;12268;52.110;5.548;2022-09-13T04:29:52;26.92;;;15.55;;
24084;SDS011;12268;52.110;5.548;2022-09-13T04:32:17;25.15;;;17.05;;
24084;SDS011;12268;52.110;5.548;2022-09-13T04:34:43;26.13;;;16.15;;
24084;SDS011;12268;52.110;5.548;2022-09-13T04:37:08;24.25;;;16.33;;
24084;SDS011;12268;52.110;5.548;2022-09-13T04:39:34;26.25;;;16.80;;
24084;SDS011;12268;52.110;5.548;2022-09-13T04:41:59;27.58;;;18.23;;
24084;SDS011;12268;52.110;5.548;2022-09-13T04:44:26;26.38;;;17.35;;
24084;SDS011;12268;52.110;5.548;2022-09-13T04:46:51;29.83;;;17.45;;
24084;SDS011;12268;52.110;5.548;2022-09-13T04:49:17;29.42;;;18.38;;
24084;SDS011;12268;52.110;5.548;2022-09-13T04:51:44;25.50;;;17.55;;
24084;SDS011;12268;52.110;5.548;2022-09-13T04:54:10;25.40;;;17.25;;
24084;SDS011;12268;52.110;5.548;2022-09-13T04:56:36;26.40;;;17.48;;
24084;SDS011;12268;52.110;5.548;2022-09-13T04:59:02;27.27;;;18.02;;
24084;SDS011;12268;52.110;5.548;2022-09-13T05:01:28;27.15;;;18.50;;
24084;SDS011;12268;52.110;5.548;2022-09-13T05:03:53;32.35;;;18.63;;
24084;SDS011;12268;52.110;5.548;2022-09-13T05:06:19;25.58;;;18.08;;
24084;SDS011;12268;52.110;5.548;2022-09-13T05:08:49;29.13;;;17.88;;
24084;SDS011;12268;52.110;5.548;2022-09-13T05:11:18;25.85;;;17.10;;
24084;SDS011;12268;52.110;5.548;2022-09-13T05:13:47;25.65;;;17.55;;
24084;SDS011;12268;52.110;5.548;2022-09-13T05:16:16;26.45;;;17.35;;
24084;SDS011;12268;52.110;5.548;2022-09-13T05:18:42;24.08;;;16.65;;
24084;SDS011;12268;52.110;5.548;2022-09-13T05:21:08;29.08;;;18.40;;
24084;SDS011;12268;52.110;5.548;2022-09-13T05:23:33;21.90;;;16.00;;
24084;SDS011;12268;52.110;5.548;2022-09-13T05:26:00;26.00;;;16.92;;
24084;SDS011;12268;52.110;5.548;2022-09-13T05:28:27;27.80;;;17.90;;
24084;SDS011;12268;52.110;5.548;2022-09-13T05:30:57;30.40;;;17.70;;
24084;SDS011;12268;52.110;5.548;2022-09-13T05:33:28;24.55;;;16.92;;
24084;SDS011;12268;52.110;5.548;2022-09-13T05:35:55;25.65;;;17.83;;
24084;SDS011;12268;52.110;5.548;2022-09-13T05:38:21;30.35;;;19.08;;
24084;SDS011;12268;52.110;5.548;2022-09-13T05:40:47;26.90;;;17.95;;
24084;SDS011;12268;52.110;5.548;2022-09-13T05:43:13;27.20;;;17.85;;
24084;SDS011;12268;52.110;5.548;2022-09-13T05:45:39;26.23;;;17.90;;
24084;SDS011;12268;52.110;5.548;2022-09-13T05:48:05;28.95;;;18.30;;
24084;SDS011;12268;52.110;5.548;2022-09-13T05:50:30;27.27;;;17.92;;
24084;SDS011;12268;52.110;5.548;2022-09-13T05:53:00;26.90;;;16.52;;
24084;SDS011;12268;52.110;5.548;2022-09-13T05:55:26;26.73;;;15.60;;
24084;SDS011;12268;52.110;5.548;2022-09-13T05:57:51;24.55;;;16.90;;
24084;SDS011;12268;52.110;5.548;2022-09-13T06:00:17;26.88;;;17.38;;
24084;SDS011;12268;52.110;5.548;2022-09-13T06:02:42;24.45;;;16.83;;
24084;SDS011;12268;52.110;5.548;2022-09-13T06:05:08;23.92;;;15.60;;
24084;SDS011;12268;52.110;5.548;2022-09-13T06:07:34;26.65;;;17.67;;
24084;SDS011;12268;52.110;5.548;2022-09-13T06:10:00;28.63;;;16.88;;
24084;SDS011;12268;52.110;5.548;2022-09-13T06:12:26;23.95;;;16.48;;
24084;SDS011;12268;52.110;5.548;2022-09-13T06:14:52;30.50;;;17.60;;
24084;SDS011;12268;52.110;5.548;2022-09-13T06:17:17;30.25;;;17.02;;
24084;SDS011;12268;52.110;5.548;2022-09-13T06:19:43;24.55;;;16.00;;
24084;SDS011;12268;52.110;5.548;2022-09-13T06:22:08;31.45;;;17.45;;
24084;SDS011;12268;52.110;5.548;2022-09-13T06:24:34;31.02;;;16.10;;
24084;SDS011;12268;52.110;5.548;2022-09-13T06:27:01;26.55;;;16.23;;
24084;SDS011;12268;52.110;5.548;2022-09-13T06:29:27;28.92;;;16.77;;
24084;SDS011;12268;52.110;5.548;2022-09-13T06:31:52;26.95;;;16.38;;
24084;SDS011;12268;52.110;5.548;2022-09-13T06:34:18;26.27;;;16.63;;
24084;SDS011;12268;52.110;5.548;2022-09-13T06:36:44;29.35;;;17.27;;
24084;SDS011;12268;52.110;5.548;2022-09-13T06:39:10;29.50;;;17.50;;
24084;SDS011;12268;52.110;5.548;2022-09-13T06:41:35;28.58;;;18.25;;
24084;SDS011;12268;52.110;5.548;2022-09-13T06:44:02;31.23;;;17.65;;
24084;SDS011;12268;52.110;5.548;2022-09-13T06:46:28;29.70;;;17.80;;
24084;SDS011;12268;52.110;5.548;2022-09-13T06:49:00;31.13;;;18.38;;
24084;SDS011;12268;52.110;5.548;2022-09-13T06:51:27;29.70;;;18.00;;
24084;SDS011;12268;52.110;5.548;2022-09-13T06:53:54;35.83;;;18.90;;
24084;SDS011;12268;52.110;5.548;2022-09-13T06:56:30;28.52;;;17.80;;
24084;SDS011;12268;52.110;5.548;2022-09-13T06:58:58;31.83;;;17.45;;
24084;SDS011;12268;52.110;5.548;2022-09-13T07:01:29;30.23;;;18.48;;
24084;SDS011;12268;52.110;5.548;2022-09-13T07:03:57;32.97;;;19.52;;
24084;SDS011;12268;52.110;5.548;2022-09-13T07:06:26;32.05;;;20.20;;
24084;SDS011;12268;52.110;5.548;2022-09-13T07:08:53;39.67;;;20.75;;
24084;SDS011;12268;52.110;5.548;2022-09-13T07:11:22;34.85;;;20.40;;
24084;SDS011;12268;52.110;5.548;2022-09-13T07:13:49;37.35;;;20.85;;
24084;SDS011;12268;52.110;5.548;2022-09-13T07:16:16;36.08;;;21.05;;
24084;SDS011;12268;52.110;5.548;2022-09-13T07:18:43;36.08;;;20.73;;
24084;SDS011;12268;52.110;5.548;2022-09-13T07:21:10;35.15;;;20.67;;
24084;SDS011;12268;52.110;5.548;2022-09-13T07:23:36;34.85;;;21.38;;
24084;SDS011;12268;52.110;5.548;2022-09-13T07:26:03;36.08;;;21.30;;
24084;SDS011;12268;52.110;5.548;2022-09-13T07:28:31;40.10;;;21.35;;
24084;SDS011;12268;52.110;5.548;2022-09-13T07:31:05;37.78;;;22.77;;
24084;SDS011;12268;52.110;5.548;2022-09-13T07:33:37;40.25;;;22.40;;
24084;SDS011;12268;52.110;5.548;2022-09-13T07:36:04;40.15;;;22.00;;
24084;SDS011;12268;52.110;5.548;2022-09-13T07:38:51;32.80;;;19.98;;
24084;SDS011;12268;52.110;5.548;2022-09-13T07:41:17;34.03;;;21.67;;
24084;SDS011;12268;52.110;5.548;2022-09-13T07:43:44;32.53;;;20.38;;
24084;SDS011;12268;52.110;5.548;2022-09-13T07:48:40;33.00;;;20.35;;
24084;SDS011;12268;52.110;5.548;2022-09-13T07:51:08;33.88;;;20.77;;
24084;SDS011;12268;52.110;5.548;2022-09-13T07:53:36;30.58;;;20.20;;
24084;SDS011;12268;52.110;5.548;2022-09-13T07:56:04;32.35;;;19.88;;
24084;SDS011;12268;52.110;5.548;2022-09-13T07:58:30;32.58;;;20.50;;
24084;SDS011;12268;52.110;5.548;2022-09-13T08:01:16;29.67;;;18.50;;
24084;SDS011;12268;52.110;5.548;2022-09-13T08:03:53;31.40;;;17.58;;
24084;SDS011;12268;52.110;5.548;2022-09-13T08:06:20;31.13;;;16.98;;
24084;SDS011;12268;52.110;5.548;2022-09-13T08:08:46;25.65;;;16.33;;
24084;SDS011;12268;52.110;5.548;2022-09-13T08:11:16;23.67;;;15.40;;
24084;SDS011;12268;52.110;5.548;2022-09-13T08:13:44;23.95;;;14.52;;
24084;SDS011;12268;52.110;5.548;2022-09-13T08:16:10;24.05;;;14.70;;
24084;SDS011;12268;52.110;5.548;2022-09-13T08:18:36;22.35;;;14.43;;
24084;SDS011;12268;52.110;5.548;2022-09-13T08:21:01;19.63;;;12.88;;
24084;SDS011;12268;52.110;5.548;2022-09-13T08:23:27;16.90;;;12.18;;
24084;SDS011;12268;52.110;5.548;2022-09-13T08:25:53;16.52;;;10.70;;
24084;SDS011;12268;52.110;5.548;2022-09-13T08:28:19;16.00;;;11.23;;
24084;SDS011;12268;52.110;5.548;2022-09-13T08:30:46;18.70;;;11.15;;
24084;SDS011;12268;52.110;5.548;2022-09-13T08:33:12;17.85;;;11.38;;
24084;SDS011;12268;52.110;5.548;2022-09-13T08:35:38;19.45;;;12.35;;
24084;SDS011;12268;52.110;5.548;2022-09-13T08:38:05;15.27;;;10.98;;
24084;SDS011;12268;52.110;5.548;2022-09-13T08:40:32;14.45;;;11.68;;
24084;SDS011;12268;52.110;5.548;2022-09-13T08:43:50;18.90;;;11.52;;
24084;SDS011;12268;52.110;5.548;2022-09-13T08:48:51;16.15;;;10.43;;
24084;SDS011;12268;52.110;5.548;2022-09-13T08:54:01;15.95;;;10.13;;
24084;SDS011;12268;52.110;5.548;2022-09-13T08:56:34;14.98;;;9.27;;
24084;SDS011;12268;52.110;5.548;2022-09-13T08:59:18;12.70;;;8.80;;
24084;SDS011;12268;52.110;5.548;2022-09-13T09:07:10;13.00;;;8.80;;
24084;SDS011;12268;52.110;5.548;2022-09-13T09:09:44;14.77;;;8.80;;
24084;SDS011;12268;52.110;5.548;2022-09-13T09:12:38;16.05;;;8.65;;
24084;SDS011;12268;52.110;5.548;2022-09-13T09:20:24;11.75;;;6.50;;
24084;SDS011;12268;52.110;5.548;2022-09-13T09:22:50;10.50;;;7.25;;
24084;SDS011;12268;52.110;5.548;2022-09-13T09:25:19;9.32;;;6.35;;
24084;SDS011;12268;52.110;5.548;2022-09-13T09:27:46;9.43;;;6.53;;
24084;SDS011;12268;52.110;5.548;2022-09-13T09:30:12;8.95;;;6.00;;
24084;SDS011;12268;52.110;5.548;2022-09-13T09:40:47;9.15;;;3.33;;
24084;SDS011;12268;52.110;5.548;2022-09-13T09:43:21;4.72;;;2.75;;
24084;SDS011;12268;52.110;5.548;2022-09-13T09:45:51;4.53;;;2.75;;
24084;SDS011;12268;52.110;5.548;2022-09-13T09:48:20;3.83;;;3.25;;
24084;SDS011;12268;52.110;5.548;2022-09-13T09:50:51;5.78;;;3.05;;
24084;SDS011;12268;52.110;5.548;2022-09-13T09:53:27;5.78;;;2.55;;
24084;SDS011;12268;52.110;5.548;2022-09-13T09:56:19;4.57;;;2.40;;
24084;SDS011;12268;52.110;5.548;2022-09-13T09:58:48;3.77;;;2.13;;
24084;SDS011;12268;52.110;5.548;2022-09-13T10:04:00;4.15;;;2.55;;
24084;SDS011;12268;52.110;5.548;2022-09-13T10:06:27;4.15;;;2.78;;
24084;SDS011;12268;52.110;5.548;2022-09-13T10:17:03;3.20;;;2.00;;
24084;SDS011;12268;52.110;5.548;2022-09-13T10:19:30;2.92;;;1.92;;
24084;SDS011;12268;52.110;5.548;2022-09-13T10:24:32;6.65;;;2.03;;
24084;SDS011;12268;52.110;5.548;2022-09-13T10:26:58;2.88;;;1.75;;
24084;SDS011;12268;52.110;5.548;2022-09-13T10:29:25;6.03;;;1.65;;
24084;SDS011;12268;52.110;5.548;2022-09-13T10:31:52;4.13;;;2.30;;
24084;SDS011;12268;52.110;5.548;2022-09-13T10:34:26;6.10;;;1.83;;
24084;SDS011;12268;52.110;5.548;2022-09-13T10:39:22;5.35;;;1.80;;
24084;SDS011;12268;52.110;5.548;2022-09-13T10:41:53;3.30;;;1.90;;
24084;SDS011;12268;52.110;5.548;2022-09-13T10:44:24;3.90;;;2.10;;
24084;SDS011;12268;52.110;5.548;2022-09-13T10:46:54;4.30;;;1.92;;
24084;SDS011;12268;52.110;5.548;2022-09-13T10:49:35;3.25;;;1.58;;
24084;SDS011;12268;52.110;5.548;2022-09-13T10:54:54;4.35;;;2.38;;
24084;SDS011;12268;52.110;5.548;2022-09-13T10:57:39;5.30;;;2.60;;
24084;SDS011;12268;52.110;5.548;2022-09-13T11:00:05;3.95;;;2.50;;
24084;SDS011;12268;52.110;5.548;2022-09-13T11:05:28;4.03;;;2.10;;
24084;SDS011;12268;52.110;5.548;2022-09-13T11:11:15;3.72;;;2.03;;
24084;SDS011;12268;52.110;5.548;2022-09-13T11:16:52;2.80;;;1.77;;
24084;SDS011;12268;52.110;5.548;2022-09-13T11:22:24;5.15;;;2.17;;
24084;SDS011;12268;52.110;5.548;2022-09-13T11:39:30;2.92;;;2.00;;
24084;SDS011;12268;52.110;5.548;2022-09-13T11:42:14;1.90;;;1.80;;
24084;SDS011;12268;52.110;5.548;2022-09-13T11:47:20;3.20;;;2.15;;
24084;SDS011;12268;52.110;5.548;2022-09-13T11:55:46;3.28;;;1.90;;
24084;SDS011;12268;52.110;5.548;2022-09-13T11:58:10;4.90;;;2.10;;
24084;SDS011;12268;52.110;5.548;2022-09-13T12:00:46;2.42;;;1.90;;
24084;SDS011;12268;52.110;5.548;2022-09-13T12:03:22;3.72;;;2.47;;
24084;SDS011;12268;52.110;5.548;2022-09-13T12:05:56;3.88;;;2.20;;
24084;SDS011;12268;52.110;5.548;2022-09-13T12:08:26;2.75;;;2.28;;
24084;SDS011;12268;52.110;5.548;2022-09-13T12:11:03;7.68;;;2.33;;
24084;SDS011;12268;52.110;5.548;2022-09-13T12:13:43;2.55;;;1.88;;
24084;SDS011;12268;52.110;5.548;2022-09-13T12:16:16;3.72;;;2.22;;
24084;SDS011;12268;52.110;5.548;2022-09-13T12:18:52;3.50;;;2.30;;
24084;SDS011;12268;52.110;5.548;2022-09-13T12:24:20;6.25;;;2.03;;
24084;SDS011;12268;52.110;5.548;2022-09-13T12:26:59;4.57;;;2.47;;
24084;SDS011;12268;52.110;5.548;2022-09-13T12:29:49;3.92;;;2.08;;
24084;SDS011;12268;52.110;5.548;2022-09-13T12:59:03;2.03;;;1.50;;
24084;SDS011;12268;52.110;5.548;2022-09-13T13:01:46;3.47;;;1.85;;
24084;SDS011;12268;52.110;5.548;2022-09-13T13:04:15;2.88;;;1.60;;
24084;SDS011;12268;52.110;5.548;2022-09-13T13:06:58;4.65;;;2.05;;
24084;SDS011;12268;52.110;5.548;2022-09-13T13:11:58;2.47;;;1.58;;
24084;SDS011;12268;52.110;5.548;2022-09-13T13:19:48;4.00;;;1.70;;
24084;SDS011;12268;52.110;5.548;2022-09-13T13:28:19;4.07;;;1.75;;
24084;SDS011;12268;52.110;5.548;2022-09-13T13:39:03;6.07;;;1.70;;
24084;SDS011;12268;52.110;5.548;2022-09-13T13:44:00;4.18;;;1.90;;
24084;SDS011;12268;52.110;5.548;2022-09-13T13:48:53;2.88;;;1.63;;
24084;SDS011;12268;52.110;5.548;2022-09-13T13:51:23;2.85;;;1.60;;
24084;SDS011;12268;52.110;5.548;2022-09-13T13:54:03;2.85;;;1.65;;
24084;SDS011;12268;52.110;5.548;2022-09-13T13:56:49;2.85;;;1.45;;
24084;SDS011;12268;52.110;5.548;2022-09-13T13:59:20;5.10;;;1.58;;
24084;SDS011;12268;52.110;5.548;2022-09-13T14:01:50;4.72;;;1.52;;
24084;SDS011;12268;52.110;5.548;2022-09-13T14:04:40;4.40;;;1.58;;
24084;SDS011;12268;52.110;5.548;2022-09-13T14:10:21;3.95;;;1.13;;
24084;SDS011;12268;52.110;5.548;2022-09-13T14:13:04;5.47;;;1.30;;
24084;SDS011;12268;52.110;5.548;2022-09-13T14:20:59;2.92;;;1.38;;
24084;SDS011;12268;52.110;5.548;2022-09-13T14:23:24;2.63;;;1.05;;
24084;SDS011;12268;52.110;5.548;2022-09-13T14:25:57;4.45;;;1.13;;
24084;SDS011;12268;52.110;5.548;2022-09-13T14:28:24;3.90;;;1.40;;
24084;SDS011;12268;52.110;5.548;2022-09-13T14:30:55;2.15;;;1.00;;
24084;SDS011;12268;52.110;5.548;2022-09-13T14:35:55;5.07;;;1.27;;
24084;SDS011;12268;52.110;5.548;2022-09-13T14:38:23;1.88;;;1.17;;
24084;SDS011;12268;52.110;5.548;2022-09-13T14:40:57;3.17;;;1.10;;
24084;SDS011;12268;52.110;5.548;2022-09-13T14:43:40;4.32;;;1.27;;
24084;SDS011;12268;52.110;5.548;2022-09-13T14:46:06;2.42;;;1.10;;
24084;SDS011;12268;52.110;5.548;2022-09-13T14:48:40;2.60;;;1.00;;
24084;SDS011;12268;52.110;5.548;2022-09-13T14:51:24;3.20;;;1.15;;
24084;SDS011;12268;52.110;5.548;2022-09-13T14:53:56;4.60;;;0.98;;
24084;SDS011;12268;52.110;5.548;2022-09-13T14:56:34;4.75;;;1.15;;
24084;SDS011;12268;52.110;5.548;2022-09-13T14:59:05;4.20;;;1.50;;
24084;SDS011;12268;52.110;5.548;2022-09-13T15:01:38;2.05;;;1.00;;
24084;SDS011;12268;52.110;5.548;2022-09-13T15:04:04;9.48;;;1.45;;
24084;SDS011;12268;52.110;5.548;2022-09-13T15:06:31;5.78;;;1.40;;
24084;SDS011;12268;52.110;5.548;2022-09-13T15:09:47;4.25;;;1.50;;
24084;SDS011;12268;52.110;5.548;2022-09-13T15:14:33;4.18;;;1.17;;
24084;SDS011;12268;52.110;5.548;2022-09-13T15:19:39;1.98;;;1.10;;
24084;SDS011;12268;52.110;5.548;2022-09-13T15:22:13;6.22;;;1.20;;
24084;SDS011;12268;52.110;5.548;2022-09-13T15:24:46;5.10;;;1.02;;
24084;SDS011;12268;52.110;5.548;2022-09-13T15:27:28;3.17;;;1.10;;
24084;SDS011;12268;52.110;5.548;2022-09-13T15:30:03;2.85;;;1.15;;
24084;SDS011;12268;52.110;5.548;2022-09-13T15:32:34;2.50;;;1.05;;
24084;SDS011;12268;52.110;5.548;2022-09-13T15:38:16;2.20;;;1.02;;
24084;SDS011;12268;52.110;5.548;2022-09-13T15:40:56;7.55;;;1.40;;
24084;SDS011;12268;52.110;5.548;2022-09-13T15:43:22;5.55;;;0.90;;
24084;SDS011;12268;52.110;5.548;2022-09-13T15:45:48;7.30;;;1.35;;
24084;SDS011;12268;52.110;5.548;2022-09-13T15:48:25;5.05;;;1.27;;
24084;SDS011;12268;52.110;5.548;2022-09-13T15:51:28;4.00;;;1.08;;
24084;SDS011;12268;52.110;5.548;2022-09-13T15:53:47;3.30;;;0.90;;
24084;SDS011;12268;52.110;5.548;2022-09-13T15:56:14;4.85;;;1.02;;
24084;SDS011;12268;52.110;5.548;2022-09-13T15:58:42;9.10;;;1.30;;
24084;SDS011;12268;52.110;5.548;2022-09-13T16:01:09;3.70;;;0.90;;
24084;SDS011;12268;52.110;5.548;2022-09-13T16:03:38;6.95;;;1.30;;
24084;SDS011;12268;52.110;5.548;2022-09-13T16:06:05;6.25;;;1.48;;
24084;SDS011;12268;52.110;5.548;2022-09-13T16:08:33;4.22;;;1.42;;
24084;SDS011;12268;52.110;5.548;2022-09-13T16:11:02;3.90;;;1.20;;
24084;SDS011;12268;52.110;5.548;2022-09-13T16:13:27;4.22;;;1.50;;
24084;SDS011;12268;52.110;5.548;2022-09-13T16:15:53;4.28;;;1.25;;
24084;SDS011;12268;52.110;5.548;2022-09-13T16:18:21;5.45;;;1.60;;
24084;SDS011;12268;52.110;5.548;2022-09-13T16:20:47;7.03;;;1.60;;
24084;SDS011;12268;52.110;5.548;2022-09-13T16:23:12;4.80;;;1.60;;
24084;SDS011;12268;52.110;5.548;2022-09-13T16:25:38;2.97;;;1.13;;
24084;SDS011;12268;52.110;5.548;2022-09-13T16:28:04;8.27;;;1.13;;
24084;SDS011;12268;52.110;5.548;2022-09-13T16:30:30;5.25;;;1.40;;
24084;SDS011;12268;52.110;5.548;2022-09-13T16:32:57;5.82;;;1.55;;
24084;SDS011;12268;52.110;5.548;2022-09-13T16:35:26;11.32;;;1.80;;
24084;SDS011;12268;52.110;5.548;2022-09-13T16:37:54;5.20;;;1.70;;
24084;SDS011;12268;52.110;5.548;2022-09-13T16:40:20;4.05;;;1.60;;
24084;SDS011;12268;52.110;5.548;2022-09-13T16:42:46;5.65;;;1.98;;
24084;SDS011;12268;52.110;5.548;2022-09-13T16:45:12;5.57;;;1.88;;
24084;SDS011;12268;52.110;5.548;2022-09-13T16:47:37;5.20;;;1.30;;
24084;SDS011;12268;52.110;5.548;2022-09-13T16:50:04;4.82;;;0.90;;
24084;SDS011;12268;52.110;5.548;2022-09-13T16:52:31;6.75;;;1.40;;
24084;SDS011;12268;52.110;5.548;2022-09-13T16:54:57;3.22;;;1.30;;
24084;SDS011;12268;52.110;5.548;2022-09-13T16:57:23;4.78;;;1.15;;
24084;SDS011;12268;52.110;5.548;2022-09-13T16:59:50;2.72;;;1.13;;
24084;SDS011;12268;52.110;5.548;2022-09-13T17:02:17;4.95;;;1.00;;
24084;SDS011;12268;52.110;5.548;2022-09-13T17:04:43;6.28;;;1.30;;
24084;SDS011;12268;52.110;5.548;2022-09-13T17:07:09;3.65;;;1.65;;
24084;SDS011;12268;52.110;5.548;2022-09-13T17:09:36;6.65;;;1.20;;
24084;SDS011;12268;52.110;5.548;2022-09-13T17:12:02;4.40;;;1.60;;
24084;SDS011;12268;52.110;5.548;2022-09-13T17:14:27;11.55;;;3.10;;
24084;SDS011;12268;52.110;5.548;2022-09-13T17:16:54;6.57;;;1.90;;
24084;SDS011;12268;52.110;5.548;2022-09-13T17:19:22;6.43;;;1.65;;
24084;SDS011;12268;52.110;5.548;2022-09-13T17:21:57;4.38;;;1.58;;
24084;SDS011;12268;52.110;5.548;2022-09-13T17:24:24;5.72;;;1.58;;
24084;SDS011;12268;52.110;5.548;2022-09-13T17:26:51;4.93;;;1.70;;
24084;SDS011;12268;52.110;5.548;2022-09-13T17:29:17;4.20;;;1.55;;
24084;SDS011;12268;52.110;5.548;2022-09-13T17:31:43;3.75;;;1.58;;
24084;SDS011;12268;52.110;5.548;2022-09-13T17:34:09;7.03;;;1.85;;
24084;SDS011;12268;52.110;5.548;2022-09-13T17:36:37;6.47;;;2.50;;
24084;SDS011;12268;52.110;5.548;2022-09-13T17:39:03;5.60;;;2.50;;
24084;SDS011;12268;52.110;5.548;2022-09-13T17:41:29;5.80;;;2.63;;
24084;SDS011;12268;52.110;5.548;2022-09-13T17:43:55;5.88;;;2.15;;
24084;SDS011;12268;52.110;5.548;2022-09-13T17:46:21;3.58;;;2.03;;
24084;SDS011;12268;52.110;5.548;2022-09-13T17:48:49;7.05;;;1.70;;
24084;SDS011;12268;52.110;5.548;2022-09-13T17:51:17;7.55;;;1.90;;
24084;SDS011;12268;52.110;5.548;2022-09-13T17:53:46;6.15;;;1.60;;
24084;SDS011;12268;52.110;5.548;2022-09-13T17:56:17;3.83;;;1.63;;
24084;SDS011;12268;52.110;5.548;2022-09-13T17:58:47;7.47;;;1.70;;
24084;SDS011;12268;52.110;5.548;2022-09-13T18:01:13;6.57;;;1.73;;
24084;SDS011;12268;52.110;5.548;2022-09-13T18:03:39;5.40;;;2.03;;
24084;SDS011;12268;52.110;5.548;2022-09-13T18:06:05;8.80;;;1.60;;
24084;SDS011;12268;52.110;5.548;2022-09-13T18:08:33;3.72;;;1.50;;
24084;SDS011;12268;52.110;5.548;2022-09-13T18:11:02;4.03;;;1.48;;
24084;SDS011;12268;52.110;5.548;2022-09-13T18:13:31;6.00;;;1.90;;
24084;SDS011;12268;52.110;5.548;2022-09-13T18:16:00;4.90;;;2.30;;
24084;SDS011;12268;52.110;5.548;2022-09-13T18:18:34;6.22;;;1.70;;
24084;SDS011;12268;52.110;5.548;2022-09-13T18:21:01;3.63;;;1.83;;